Time;durP1;ratioP1;P1;durP2;ratioP2;P2;SDS_P1;SDS_P2;PMS_P1;PMS_P2;Temp;Humidity;BMP_temperature;BMP_pressure;BME280_temperature;BME280_humidity;BME280_pressure;Samples;Min_cycle;Max_cycle;Signal;HPM_P1;HPM_P2
2023/04/20 00:01:09;;;;;;;16.15;11.35;;;4.10;99.90;;;;;;5025992;28;20053;-40
2023/04/20 00:03:37;;;;;;;14.63;10.00;;;4.00;99.90;;;;;;5043321;28;20455;-39
2023/04/20 00:06:05;;;;;;;15.23;9.10;;;4.00;99.90;;;;;;5044257;28;20041;-41
2023/04/20 00:08:32;;;;;;;12.48;9.35;;;4.00;99.90;;;;;;5042034;28;20038;-41
2023/04/20 00:10:59;;;;;;;14.07;8.63;;;3.90;99.90;;;;;;5032150;28;20060;-41
2023/04/20 00:13:26;;;;;;;16.83;8.55;;;3.90;99.90;;;;;;5032250;28;20052;-38
2023/04/20 00:15:54;;;;;;;13.55;7.68;;;3.90;99.90;;;;;;5031114;28;20045;-41
2023/04/20 00:18:21;;;;;;;11.35;7.43;;;3.80;99.90;;;;;;5040081;28;20513;-41
2023/04/20 00:20:48;;;;;;;12.15;7.75;;;3.70;99.90;;;;;;5033979;28;20055;-40
2023/04/20 00:23:16;;;;;;;14.90;8.48;;;3.70;99.90;;;;;;5032404;28;20044;-42
2023/04/20 00:25:48;;;;;;;14.95;8.40;;;3.70;99.90;;;;;;5041540;28;20587;-40
2023/04/20 00:28:17;;;;;;;11.50;7.82;;;3.60;99.90;;;;;;5032747;28;20179;-41
2023/04/20 00:30:48;;;;;;;12.65;7.80;;;3.60;99.90;;;;;;5037448;28;20053;-42
2023/04/20 00:33:18;;;;;;;11.07;7.95;;;3.50;99.90;;;;;;5034936;28;20053;-43
2023/04/20 00:35:52;;;;;;;11.85;8.10;;;3.50;99.90;;;;;;5031020;28;20049;-43
2023/04/20 00:38:23;;;;;;;10.98;8.02;;;3.50;99.90;;;;;;5031520;28;20041;-43
2023/04/20 00:40:53;;;;;;;11.80;7.80;;;3.40;99.90;;;;;;5041299;28;20049;-46
2023/04/20 00:43:26;;;;;;;12.35;8.05;;;3.40;99.90;;;;;;5032800;28;20449;-38
2023/04/20 00:45:54;;;;;;;13.48;8.02;;;3.40;99.90;;;;;;5032544;28;20045;-41
2023/04/20 00:48:24;;;;;;;13.82;9.82;;;3.40;99.90;;;;;;5031590;28;20437;-42
2023/04/20 00:50:53;;;;;;;16.70;10.20;;;3.40;99.90;;;;;;5032120;28;20045;-40
2023/04/20 00:53:22;;;;;;;22.30;12.93;;;3.40;99.90;;;;;;5040475;28;20111;-42
2023/04/20 00:55:52;;;;;;;27.17;16.08;;;3.40;99.90;;;;;;5040433;28;20049;-39
2023/04/20 00:58:22;;;;;;;30.65;18.13;;;3.40;99.90;;;;;;5031879;28;20478;-40
2023/04/20 01:00:52;;;;;;;38.28;19.13;;;3.40;99.90;;;;;;5031680;28;20113;-38
2023/04/20 01:03:21;;;;;;;30.33;18.45;;;3.40;99.90;;;;;;5030950;28;20068;-40
2023/04/20 01:05:50;;;;;;;31.80;19.30;;;3.30;99.90;;;;;;5037759;28;20045;-39
2023/04/20 01:08:17;;;;;;;23.88;14.88;;;3.30;99.90;;;;;;5031624;28;20072;-42
2023/04/20 01:10:45;;;;;;;20.55;12.95;;;3.30;99.90;;;;;;5033949;28;20053;-41
2023/04/20 01:13:12;;;;;;;17.48;11.40;;;3.30;99.90;;;;;;5028474;28;20046;-40
2023/04/20 01:15:39;;;;;;;15.25;10.05;;;3.30;99.90;;;;;;5032237;28;20049;-39
2023/04/20 01:18:08;;;;;;;14.82;9.35;;;3.30;99.90;;;;;;5032435;28;20112;-39
2023/04/20 01:20:37;;;;;;;13.90;9.25;;;3.20;99.90;;;;;;5030159;28;20049;-43
2023/04/20 01:23:04;;;;;;;16.30;9.27;;;3.20;99.90;;;;;;5030272;28;20041;-43
2023/04/20 01:25:31;;;;;;;18.05;10.70;;;3.20;99.90;;;;;;5029771;28;20405;-39
2023/04/20 01:27:59;;;;;;;21.70;12.35;;;3.20;99.90;;;;;;5030563;28;20061;-42
2023/04/20 01:30:28;;;;;;;15.93;9.43;;;3.20;99.90;;;;;;5029913;28;20080;-42
2023/04/20 01:32:55;;;;;;;18.35;11.52;;;3.30;99.90;;;;;;5030773;28;20509;-40
2023/04/20 01:35:23;;;;;;;18.20;11.45;;;3.40;99.90;;;;;;5037871;28;20072;-42
2023/04/20 01:37:50;;;;;;;15.98;11.48;;;3.40;99.90;;;;;;5035295;28;20057;-40
2023/04/20 01:40:18;;;;;;;17.08;9.88;;;3.40;99.90;;;;;;5036234;28;20084;-40
2023/04/20 01:42:45;;;;;;;18.33;10.63;;;3.40;99.90;;;;;;5035907;28;20457;-39
2023/04/20 01:45:12;;;;;;;15.70;9.70;;;3.40;99.90;;;;;;5030467;28;20524;-40
2023/04/20 01:47:39;;;;;;;13.77;9.55;;;3.50;99.90;;;;;;5031612;28;20068;-42
2023/04/20 01:50:07;;;;;;;12.95;9.48;;;3.50;99.90;;;;;;5028514;28;20128;-43
2023/04/20 01:52:34;;;;;;;13.13;9.07;;;3.40;99.90;;;;;;5031427;28;20046;-41
2023/04/20 01:55:02;;;;;;;17.25;9.10;;;3.40;99.90;;;;;;5030120;28;20055;-44
2023/04/20 01:57:29;;;;;;;11.98;8.43;;;3.40;99.90;;;;;;5032292;28;20103;-41
2023/04/20 01:59:56;;;;;;;12.73;8.73;;;3.30;99.90;;;;;;5028706;28;20042;-41
2023/04/20 02:02:24;;;;;;;14.57;9.35;;;3.30;99.90;;;;;;5027690;28;20484;-41
2023/04/20 02:04:52;;;;;;;12.13;9.13;;;3.30;99.90;;;;;;5028220;28;20051;-41
2023/04/20 02:07:19;;;;;;;12.55;8.95;;;3.30;99.90;;;;;;5029828;28;20046;-39
2023/04/20 02:09:47;;;;;;;17.25;9.70;;;3.20;99.90;;;;;;5028195;28;20107;-42
2023/04/20 02:12:14;;;;;;;17.55;9.80;;;3.20;99.90;;;;;;5029196;28;20053;-40
2023/04/20 02:14:41;;;;;;;12.73;9.18;;;3.20;99.90;;;;;;5027432;28;20057;-38
2023/04/20 02:17:09;;;;;;;14.30;8.88;;;3.20;99.90;;;;;;5031226;28;20050;-39
2023/04/20 02:19:37;;;;;;;15.55;9.00;;;3.20;99.90;;;;;;5029470;28;20054;-42
2023/04/20 02:22:04;;;;;;;13.77;8.27;;;3.20;99.90;;;;;;5030427;28;20041;-39
2023/04/20 02:24:32;;;;;;;13.38;8.63;;;3.10;99.90;;;;;;5031130;28;20137;-43
2023/04/20 02:27:00;;;;;;;13.00;9.20;;;3.10;99.90;;;;;;5032242;28;20406;-41
2023/04/20 02:29:27;;;;;;;13.68;9.55;;;3.10;99.90;;;;;;5032746;28;20099;-43
2023/04/20 02:31:54;;;;;;;13.07;8.85;;;3.00;99.90;;;;;;5030006;28;20042;-40
2023/04/20 02:34:23;;;;;;;12.98;8.18;;;3.00;99.90;;;;;;5029463;28;20053;-39
2023/04/20 02:36:50;;;;;;;13.02;9.20;;;3.00;99.90;;;;;;5029637;28;20049;-40
2023/04/20 02:39:17;;;;;;;11.18;7.97;;;3.00;99.90;;;;;;5028134;28;20135;-42
2023/04/20 02:41:45;;;;;;;13.27;8.82;;;3.00;99.90;;;;;;5024130;28;20042;-41
2023/04/20 02:44:12;;;;;;;10.77;7.97;;;2.90;99.90;;;;;;5028933;28;20120;-40
2023/04/20 02:46:40;;;;;;;14.18;8.10;;;2.90;99.90;;;;;;5033468;28;20046;-41
2023/04/20 02:49:08;;;;;;;14.52;8.52;;;2.80;99.90;;;;;;5032844;28;20065;-39
2023/04/20 02:51:39;;;;;;;16.05;8.05;;;2.80;99.90;;;;;;5031908;28;20189;-39
2023/04/20 02:54:07;;;;;;;13.32;8.52;;;2.80;99.90;;;;;;5026477;28;20092;-39
2023/04/20 02:56:34;;;;;;;13.38;7.80;;;2.80;99.90;;;;;;5035554;28;20045;-41
2023/04/20 02:59:06;;;;;;;12.98;8.27;;;2.80;99.90;;;;;;5031338;28;20107;-39
2023/04/20 03:01:52;;;;;;;11.65;8.20;;;2.70;99.90;;;;;;5034582;28;20050;-40
2023/04/20 03:04:24;;;;;;;13.60;8.10;;;2.80;99.90;;;;;;5033642;28;20053;-40
2023/04/20 03:07:02;;;;;;;10.27;7.80;;;2.70;99.90;;;;;;5037678;28;20510;-44
2023/04/20 03:09:33;;;;;;;10.98;8.05;;;2.70;99.90;;;;;;5032631;28;20477;-38
2023/04/20 03:12:13;;;;;;;13.93;7.70;;;2.70;99.90;;;;;;5033853;28;20045;-40
2023/04/20 03:14:59;;;;;;;13.10;8.50;;;2.70;99.90;;;;;;5026590;28;20118;-38
2023/04/20 03:17:38;;;;;;;14.52;8.82;;;2.60;99.90;;;;;;5033340;28;20049;-40
2023/04/20 03:20:07;;;;;;;13.73;9.38;;;2.60;99.90;;;;;;5030711;28;20041;-40
2023/04/20 03:22:36;;;;;;;14.82;8.55;;;2.70;99.90;;;;;;5025102;28;20037;-40
2023/04/20 03:25:05;;;;;;;13.30;8.82;;;2.60;99.90;;;;;;5029918;28;20125;-40
2023/04/20 03:27:47;;;;;;;12.85;9.02;;;2.60;99.90;;;;;;5026032;28;20053;-40
2023/04/20 03:30:15;;;;;;;14.32;8.95;;;2.60;99.90;;;;;;5029074;28;20133;-43
2023/04/20 03:32:45;;;;;;;12.70;9.02;;;2.60;99.90;;;;;;5026425;28;20072;-39
2023/04/20 03:35:13;;;;;;;13.27;8.50;;;2.50;99.90;;;;;;5025866;28;20061;-39
2023/04/20 03:37:41;;;;;;;14.73;9.63;;;2.50;99.90;;;;;;5023767;28;20052;-39
2023/04/20 03:40:09;;;;;;;15.73;9.20;;;2.50;99.90;;;;;;5029054;28;20072;-42
2023/04/20 03:42:37;;;;;;;12.88;8.32;;;2.50;99.90;;;;;;5023342;28;20046;-43
2023/04/20 03:45:05;;;;;;;15.60;9.60;;;2.50;99.90;;;;;;5027723;28;20030;-41
2023/04/20 03:47:33;;;;;;;14.10;9.00;;;2.50;99.90;;;;;;5017629;28;20069;-38
2023/04/20 03:50:00;;;;;;;12.68;8.70;;;2.50;99.90;;;;;;5029034;28;20049;-47
2023/04/20 03:52:27;;;;;;;13.63;8.82;;;2.50;99.90;;;;;;5028910;28;20200;-41
2023/04/20 03:54:56;;;;;;;15.30;9.07;;;2.50;99.90;;;;;;5031712;28;20052;-41
2023/04/20 03:57:23;;;;;;;14.27;9.55;;;2.40;99.90;;;;;;5030267;28;20398;-42
2023/04/20 03:59:51;;;;;;;14.25;9.25;;;2.50;99.90;;;;;;5030222;28;20132;-45
2023/04/20 04:02:21;;;;;;;13.77;9.60;;;2.40;99.90;;;;;;5025959;28;20421;-42
2023/04/20 04:04:50;;;;;;;14.93;9.57;;;2.40;99.90;;;;;;5024056;28;20061;-41
2023/04/20 04:07:20;;;;;;;14.32;9.65;;;2.40;99.90;;;;;;5026616;28;20049;-43
2023/04/20 04:09:48;;;;;;;15.00;10.25;;;2.40;99.90;;;;;;5025508;28;20532;-41
2023/04/20 04:12:16;;;;;;;14.60;9.38;;;2.30;99.90;;;;;;5027451;28;20056;-42
2023/04/20 04:14:45;;;;;;;23.38;13.93;;;2.30;99.90;;;;;;5026226;28;20124;-42
2023/04/20 04:17:14;;;;;;;28.25;15.60;;;2.30;99.90;;;;;;5027510;28;20045;-40
2023/04/20 04:19:42;;;;;;;34.35;18.92;;;2.30;99.90;;;;;;5025562;28;20053;-41
2023/04/20 04:22:09;;;;;;;36.60;19.60;;;2.30;99.90;;;;;;5029275;28;20111;-44
2023/04/20 04:24:45;;;;;;;32.92;18.23;;;2.30;99.90;;;;;;5033884;28;20041;-42
2023/04/20 04:27:15;;;;;;;21.95;13.95;;;2.30;99.90;;;;;;5027545;28;20089;-44
2023/04/20 04:29:51;;;;;;;20.58;12.90;;;2.30;99.90;;;;;;5026588;28;20083;-40
2023/04/20 04:32:20;;;;;;;17.80;11.07;;;2.30;99.90;;;;;;5026302;28;20195;-42
2023/04/20 04:34:49;;;;;;;17.63;12.05;;;2.30;99.90;;;;;;5028851;28;20049;-41
2023/04/20 04:37:16;;;;;;;20.75;12.00;;;2.40;99.90;;;;;;5024777;28;20513;-43
2023/04/20 04:39:50;;;;;;;16.00;11.02;;;2.40;99.90;;;;;;5047291;28;20486;-42
2023/04/20 04:42:26;;;;;;;17.40;11.32;;;2.40;99.90;;;;;;5030366;28;20529;-39
2023/04/20 04:44:55;;;;;;;14.45;10.90;;;2.50;99.90;;;;;;5036236;28;20132;-40
2023/04/20 04:47:33;;;;;;;14.77;10.45;;;2.50;99.90;;;;;;5034779;28;20409;-41
2023/04/20 04:50:04;;;;;;;18.08;12.15;;;2.60;99.90;;;;;;5024864;28;20490;-46
2023/04/20 04:52:32;;;;;;;18.25;11.93;;;2.60;99.90;;;;;;5030554;28;20050;-40
2023/04/20 04:55:00;;;;;;;16.98;11.55;;;2.60;99.90;;;;;;5039965;28;20045;-44
2023/04/20 04:57:27;;;;;;;17.45;11.95;;;2.70;99.90;;;;;;5029674;28;20045;-43
2023/04/20 04:59:54;;;;;;;16.52;11.50;;;2.80;99.90;;;;;;5025834;28;20050;-40
2023/04/20 05:02:21;;;;;;;17.85;12.23;;;2.90;99.90;;;;;;5031992;28;20524;-40
2023/04/20 05:04:49;;;;;;;19.08;12.35;;;3.00;99.90;;;;;;5033141;28;20049;-40
2023/04/20 05:07:16;;;;;;;22.00;13.23;;;3.00;99.90;;;;;;5034875;28;20102;-40
2023/04/20 05:09:44;;;;;;;18.33;12.80;;;3.10;99.90;;;;;;5033144;28;20132;-41
2023/04/20 05:12:11;;;;;;;18.15;13.68;;;3.10;99.90;;;;;;5033773;28;20068;-42
2023/04/20 05:14:38;;;;;;;19.63;13.20;;;3.20;99.90;;;;;;5032382;28;20053;-40
2023/04/20 05:17:06;;;;;;;17.92;12.27;;;3.30;99.90;;;;;;5037562;28;20460;-41
2023/04/20 05:19:33;;;;;;;17.65;11.90;;;3.40;99.90;;;;;;5036396;28;20033;-48
2023/04/20 05:22:00;;;;;;;18.85;12.77;;;3.40;99.90;;;;;;5029618;28;20069;-42
2023/04/20 05:24:28;;;;;;;17.17;12.68;;;3.50;99.90;;;;;;5029754;28;20065;-42
2023/04/20 05:26:55;;;;;;;18.10;12.32;;;3.60;99.90;;;;;;5031763;28;20041;-39
2023/04/20 05:29:22;;;;;;;18.70;12.48;;;3.70;99.90;;;;;;5032240;28;20530;-41
2023/04/20 05:31:49;;;;;;;15.60;11.27;;;3.80;99.90;;;;;;5034600;28;20144;-41
2023/04/20 05:34:17;;;;;;;15.90;10.95;;;3.90;99.90;;;;;;5038017;28;20115;-42
2023/04/20 05:36:45;;;;;;;17.98;12.27;;;4.00;99.90;;;;;;5031463;28;20037;-47
2023/04/20 05:39:13;;;;;;;16.73;12.32;;;4.00;99.90;;;;;;5023030;28;20470;-41
2023/04/20 05:41:40;;;;;;;17.13;12.13;;;4.10;99.90;;;;;;5022151;28;20033;-40
2023/04/20 05:44:07;;;;;;;17.17;11.45;;;4.20;99.90;;;;;;5026626;28;20041;-42
2023/04/20 05:46:35;;;;;;;16.90;12.05;;;4.30;99.90;;;;;;5027510;28;20395;-40
2023/04/20 05:49:02;;;;;;;19.38;11.63;;;4.40;99.90;;;;;;5022891;28;20045;-42
2023/04/20 05:51:32;;;;;;;18.55;12.02;;;4.50;99.90;;;;;;5031977;28;20057;-42
2023/04/20 05:54:00;;;;;;;22.30;14.60;;;4.50;99.90;;;;;;5023951;28;20056;-41
2023/04/20 05:56:27;;;;;;;16.90;11.93;;;4.60;99.90;;;;;;5031215;28;20136;-42
2023/04/20 05:58:55;;;;;;;21.42;12.57;;;4.60;99.90;;;;;;5031436;28;20048;-44
2023/04/20 06:01:23;;;;;;;15.65;10.98;;;4.70;99.90;;;;;;5038601;28;20078;-44
2023/04/20 06:03:50;;;;;;;16.20;11.30;;;4.70;99.90;;;;;;5032415;28;20045;-43
2023/04/20 06:06:18;;;;;;;16.83;11.00;;;4.70;99.90;;;;;;5037569;28;20062;-41
2023/04/20 06:08:45;;;;;;;15.63;11.23;;;4.80;99.90;;;;;;5035069;28;20514;-46
2023/04/20 06:11:12;;;;;;;15.55;10.98;;;4.80;99.90;;;;;;5030713;28;20099;-45
2023/04/20 06:13:39;;;;;;;17.10;10.98;;;4.90;99.90;;;;;;5032031;28;20496;-44
2023/04/20 06:16:09;;;;;;;15.20;10.07;;;5.00;99.90;;;;;;5029726;28;20156;-41
2023/04/20 06:18:37;;;;;;;16.90;11.52;;;5.00;99.90;;;;;;5032465;28;20045;-43
2023/04/20 06:21:04;;;;;;;18.00;11.25;;;5.10;99.90;;;;;;5031013;28;20453;-44
2023/04/20 06:23:31;;;;;;;15.65;11.25;;;5.20;99.90;;;;;;5030735;28;20720;-49
2023/04/20 06:25:59;;;;;;;19.20;11.52;;;5.20;99.90;;;;;;5040782;28;20115;-43
2023/04/20 06:28:26;;;;;;;15.85;10.82;;;5.30;99.90;;;;;;5041411;28;20418;-45
2023/04/20 06:30:54;;;;;;;15.27;11.35;;;5.40;99.90;;;;;;5035672;28;20153;-46
2023/04/20 06:33:21;;;;;;;16.85;11.57;;;5.50;99.90;;;;;;5029769;28;20537;-41
2023/04/20 06:35:50;;;;;;;14.27;11.00;;;5.60;99.90;;;;;;5031628;28;20520;-42
2023/04/20 06:38:17;;;;;;;21.60;11.57;;;5.70;99.90;;;;;;5039002;28;20048;-42
2023/04/20 06:40:45;;;;;;;13.25;10.20;;;5.90;99.90;;;;;;5038999;28;20045;-41
2023/04/20 06:43:12;;;;;;;15.85;10.57;;;6.00;99.90;;;;;;5036140;28;20492;-47
2023/04/20 06:45:40;;;;;;;18.00;11.15;;;6.10;99.90;;;;;;5029012;28;20057;-42
2023/04/20 06:48:07;;;;;;;16.67;10.50;;;6.20;99.90;;;;;;5023914;28;20100;-43
2023/04/20 06:50:53;;;;;;;16.70;10.25;;;6.30;99.90;;;;;;5026336;28;20071;-44
2023/04/20 06:53:21;;;;;;;15.40;11.10;;;6.40;99.90;;;;;;5028443;28;20088;-48
2023/04/20 06:55:48;;;;;;;12.88;9.90;;;6.50;99.90;;;;;;5029393;28;20068;-42
2023/04/20 06:58:15;;;;;;;14.55;10.88;;;6.50;99.90;;;;;;5029703;28;20470;-43
2023/04/20 07:00:43;;;;;;;18.20;11.00;;;6.70;99.90;;;;;;5021519;28;20333;-44
2023/04/20 07:03:10;;;;;;;14.80;10.60;;;6.70;99.90;;;;;;5029570;28;20172;-40
2023/04/20 07:05:38;;;;;;;12.73;9.57;;;6.80;99.90;;;;;;5030860;28;20049;-42
2023/04/20 07:08:05;;;;;;;13.77;10.00;;;6.80;99.90;;;;;;5035281;28;20101;-47
2023/04/20 07:10:32;;;;;;;12.93;9.20;;;6.80;99.90;;;;;;5034334;28;20065;-43
2023/04/20 07:13:00;;;;;;;12.43;9.40;;;6.90;99.90;;;;;;5020877;28;20099;-42
2023/04/20 07:15:27;;;;;;;12.20;9.00;;;6.90;99.90;;;;;;5029317;28;20494;-46
2023/04/20 07:17:54;;;;;;;14.07;9.25;;;7.00;99.90;;;;;;5030169;28;20053;-42
2023/04/20 07:20:22;;;;;;;12.80;10.32;;;7.20;99.90;;;;;;5027950;28;20053;-41
2023/04/20 07:22:49;;;;;;;14.18;10.32;;;7.30;99.90;;;;;;5029075;28;20053;-44
2023/04/20 07:25:16;;;;;;;13.65;9.57;;;7.40;99.90;;;;;;5028598;28;20080;-39
2023/04/20 07:27:44;;;;;;;15.57;9.93;;;7.60;99.90;;;;;;5028343;28;20038;-44
2023/04/20 07:30:11;;;;;;;14.60;9.35;;;7.70;99.90;;;;;;5028482;28;20113;-41
2023/04/20 07:32:40;;;;;;;12.63;9.43;;;7.80;99.90;;;;;;5028345;28;20498;-44
2023/04/20 07:35:08;;;;;;;11.88;9.25;;;7.80;99.90;;;;;;5029395;28;20137;-41
2023/04/20 07:37:35;;;;;;;11.45;8.63;;;7.90;99.90;;;;;;5027233;28;20195;-41
2023/04/20 07:40:06;;;;;;;12.98;9.30;;;7.90;99.90;;;;;;5029494;28;20049;-40
2023/04/20 07:42:35;;;;;;;12.98;9.32;;;7.90;99.90;;;;;;5028994;28;20037;-47
2023/04/20 07:45:04;;;;;;;13.48;9.98;;;8.00;99.90;;;;;;5028335;28;20064;-41
2023/04/20 07:47:33;;;;;;;11.80;9.43;;;8.10;99.90;;;;;;5029091;28;20048;-46
2023/04/20 07:50:01;;;;;;;15.18;9.27;;;8.20;99.90;;;;;;5028509;28;20037;-47
2023/04/20 07:52:28;;;;;;;10.02;8.35;;;8.30;99.90;;;;;;5029326;28;20044;-45
2023/04/20 07:54:58;;;;;;;12.05;9.68;;;8.40;99.90;;;;;;5026392;28;20085;-42
2023/04/20 07:57:26;;;;;;;11.23;8.82;;;8.60;99.90;;;;;;5027842;28;20358;-42
2023/04/20 07:59:54;;;;;;;13.45;8.75;;;8.70;99.90;;;;;;5028075;28;20057;-44
2023/04/20 08:02:21;;;;;;;9.90;8.07;;;8.90;99.90;;;;;;5029572;28;20041;-42
2023/04/20 08:04:49;;;;;;;12.80;8.82;;;9.20;99.90;;;;;;5031315;28;20052;-43
2023/04/20 08:07:18;;;;;;;12.07;9.05;;;9.40;99.90;;;;;;5030588;28;20055;-46
2023/04/20 08:09:45;;;;;;;12.43;8.55;;;9.50;99.90;;;;;;5027914;28;20050;-46
2023/04/20 08:12:12;;;;;;;11.35;8.18;;;9.50;99.90;;;;;;5030509;28;20123;-43
2023/04/20 08:14:40;;;;;;;11.70;8.10;;;9.80;99.90;;;;;;5030944;28;20045;-40
2023/04/20 08:17:07;;;;;;;10.80;8.35;;;10.00;99.90;;;;;;5033590;28;20072;-47
2023/04/20 08:19:35;;;;;;;10.45;8.15;;;10.00;99.90;;;;;;5031586;28;20064;-40
2023/04/20 08:22:03;;;;;;;11.27;8.82;;;10.20;99.90;;;;;;5031875;28;20579;-42
2023/04/20 08:24:30;;;;;;;11.07;8.52;;;10.50;99.90;;;;;;5032474;28;20137;-45
2023/04/20 08:26:58;;;;;;;9.85;8.10;;;10.50;99.90;;;;;;5039855;28;20037;-41
2023/04/20 08:29:25;;;;;;;14.55;8.57;;;10.70;99.90;;;;;;5031914;28;20073;-40
2023/04/20 08:31:52;;;;;;;9.73;8.40;;;10.80;99.90;;;;;;5031686;28;20049;-42
2023/04/20 08:34:20;;;;;;;10.55;8.48;;;11.00;99.90;;;;;;5032540;28;20045;-45
2023/04/20 08:36:48;;;;;;;9.88;8.57;;;11.10;99.90;;;;;;5034483;28;20042;-43
2023/04/20 08:39:20;;;;;;;12.80;9.85;;;11.40;99.90;;;;;;5035248;28;20383;-42
2023/04/20 08:41:52;;;;;;;11.68;8.80;;;11.40;99.90;;;;;;5033552;28;20045;-41
2023/04/20 08:44:20;;;;;;;13.15;9.10;;;11.60;99.90;;;;;;5034339;28;20053;-45
2023/04/20 08:46:48;;;;;;;12.45;9.20;;;11.70;99.90;;;;;;5032560;28;20053;-44
2023/04/20 08:49:17;;;;;;;12.85;9.15;;;11.80;99.90;;;;;;5032283;28;20046;-42
2023/04/20 08:51:46;;;;;;;11.20;9.18;;;11.60;99.90;;;;;;5033026;28;20050;-45
2023/04/20 08:54:15;;;;;;;11.70;9.40;;;11.60;99.90;;;;;;5032030;28;20049;-45
2023/04/20 08:56:45;;;;;;;17.17;9.32;;;11.70;99.90;;;;;;5032451;28;20067;-46
2023/04/20 08:59:13;;;;;;;13.30;10.13;;;11.70;99.90;;;;;;5037621;28;20052;-41
2023/04/20 09:01:42;;;;;;;13.52;10.23;;;11.80;99.90;;;;;;5036772;28;20672;-44
2023/04/20 09:04:25;;;;;;;11.27;10.07;;;12.00;99.90;;;;;;5033384;28;20049;-44
2023/04/20 09:06:54;;;;;;;13.23;9.52;;;12.20;99.90;;;;;;5033426;28;20056;-45
2023/04/20 09:09:24;;;;;;;13.13;9.85;;;12.20;99.90;;;;;;5030429;28;20534;-42
2023/04/20 09:12:06;;;;;;;11.80;10.15;;;12.50;99.90;;;;;;5031355;28;20525;-44
2023/04/20 09:14:45;;;;;;;11.77;9.57;;;12.60;99.90;;;;;;5031916;28;20045;-47
2023/04/20 09:17:14;;;;;;;10.82;9.68;;;12.90;99.90;;;;;;5025642;28;20041;-44
2023/04/20 09:19:52;;;;;;;14.65;10.32;;;13.10;99.90;;;;;;5032000;28;20064;-41
2023/04/20 09:22:32;;;;;;;11.43;9.43;;;13.00;99.90;;;;;;5036344;28;20046;-49
2023/04/20 09:25:10;;;;;;;11.05;9.82;;;13.20;99.90;;;;;;5022480;28;20533;-49
2023/04/20 09:27:38;;;;;;;14.13;9.80;;;13.20;99.90;;;;;;5030825;28;20442;-42
2023/04/20 09:30:06;;;;;;;11.40;9.30;;;13.20;99.90;;;;;;5031552;28;20136;-47
2023/04/20 09:32:34;;;;;;;10.90;8.57;;;13.30;99.90;;;;;;5029937;28;20060;-44
2023/04/20 09:35:01;;;;;;;12.02;9.60;;;13.50;99.90;;;;;;5022013;28;20045;-45
2023/04/20 09:37:29;;;;;;;14.23;10.65;;;13.40;99.90;;;;;;5029811;28;20045;-43
2023/04/20 09:39:59;;;;;;;13.68;10.13;;;13.60;99.90;;;;;;5030804;28;20113;-41
2023/04/20 09:42:27;;;;;;;11.48;9.48;;;13.90;99.90;;;;;;5030160;28;20459;-47
2023/04/20 09:44:56;;;;;;;11.75;10.07;;;14.00;99.90;;;;;;5029462;28;20049;-41
2023/04/20 09:47:25;;;;;;;12.48;10.32;;;13.70;99.90;;;;;;5029237;28;20137;-54
2023/04/20 09:49:53;;;;;;;10.93;9.82;;;13.60;99.90;;;;;;5057364;22;20134;-43
2023/04/20 09:52:23;;;;;;;13.43;10.20;;;13.80;99.90;;;;;;5060694;28;20140;-44
2023/04/20 09:54:50;;;;;;;12.05;10.00;;;13.90;99.90;;;;;;5056895;28;20220;-42
2023/04/20 09:57:18;;;;;;;11.52;9.70;;;13.60;99.90;;;;;;5061918;28;20045;-44
2023/04/20 09:59:46;;;;;;;12.27;9.98;;;13.60;99.90;;;;;;5057210;28;20045;-46
2023/04/20 10:02:13;;;;;;;12.10;9.85;;;13.60;99.90;;;;;;5054971;28;20044;-46
2023/04/20 10:04:55;;;;;;;13.15;10.38;;;13.40;99.90;;;;;;5049964;28;20046;-49
2023/04/20 10:07:27;;;;;;;14.18;10.50;;;13.10;99.90;;;;;;5054577;28;20072;-45
2023/04/20 10:10:06;;;;;;;14.68;10.32;;;13.30;99.90;;;;;;5049175;28;20049;-47
2023/04/20 10:12:45;;;;;;;12.98;10.50;;;13.00;99.90;;;;;;5056567;28;20049;-45
2023/04/20 10:15:13;;;;;;;13.32;11.48;;;12.80;99.90;;;;;;5052445;28;20167;-44
2023/04/20 10:17:40;;;;;;;14.70;11.02;;;13.10;99.90;;;;;;5053758;28;20457;-46
2023/04/20 10:20:26;;;;;;;14.25;10.63;;;13.30;99.90;;;;;;5047877;28;20129;-41
2023/04/20 10:23:09;;;;;;;12.15;10.63;;;13.30;99.90;;;;;;5048633;28;20128;-46
2023/04/20 10:25:36;;;;;;;15.65;11.38;;;12.80;99.90;;;;;;5042946;28;20505;-44
2023/04/20 10:28:09;;;;;;;12.05;10.35;;;12.80;99.90;;;;;;5046806;28;20083;-44
2023/04/20 10:30:48;;;;;;;12.65;11.32;;;12.80;99.90;;;;;;5042759;28;20103;-42
2023/04/20 10:33:16;;;;;;;12.25;10.13;;;13.00;99.90;;;;;;5051028;28;20440;-47
2023/04/20 10:35:48;;;;;;;13.65;11.05;;;13.20;99.90;;;;;;5043441;28;20037;-44
2023/04/20 10:38:36;;;;;;;13.63;10.68;;;13.20;99.90;;;;;;5050218;28;20053;-44
2023/04/20 10:41:10;;;;;;;14.20;11.18;;;13.20;99.90;;;;;;5041994;28;20087;-44
2023/04/20 10:43:42;;;;;;;13.52;11.25;;;13.30;99.90;;;;;;5050331;28;19950;-46
2023/04/20 10:46:23;;;;;;;11.88;10.02;;;13.50;99.90;;;;;;5047528;28;20070;-46
2023/04/20 10:48:51;;;;;;;12.47;10.07;;;13.40;99.90;;;;;;5041184;28;20517;-44
2023/04/20 10:51:20;;;;;;;11.45;9.95;;;13.30;99.90;;;;;;5049435;28;20049;-46
2023/04/20 10:54:06;;;;;;;13.27;9.68;;;13.40;99.90;;;;;;5052765;28;20049;-45
2023/04/20 10:56:44;;;;;;;13.80;10.20;;;13.30;99.90;;;;;;5051038;28;20056;-52
2023/04/20 10:59:27;;;;;;;12.57;10.10;;;13.50;99.90;;;;;;5041400;28;20049;-43
2023/04/20 11:01:54;;;;;;;12.63;9.60;;;13.20;99.90;;;;;;5053342;28;20068;-42
2023/04/20 11:04:30;;;;;;;11.25;9.18;;;12.90;99.90;;;;;;5051914;28;20531;-45
2023/04/20 11:07:09;;;;;;;24.42;18.27;;;12.90;99.90;;;;;;5052821;28;20524;-45
2023/04/20 11:09:41;;;;;;;12.13;9.65;;;12.90;99.90;;;;;;5051103;28;20041;-44
2023/04/20 11:12:11;;;;;;;;;;;13.10;99.90;;;;;;5048876;28;20052;-47
2023/04/20 11:14:51;;;;;;;11.43;8.90;;;13.30;99.90;;;;;;5044578;28;19928;-45
2023/04/20 11:17:18;;;;;;;11.10;9.20;;;13.30;99.90;;;;;;5052872;28;20059;-45
2023/04/20 11:19:46;;;;;;;9.98;8.52;;;13.80;99.90;;;;;;5051513;28;20051;-46
2023/04/20 11:22:22;;;;;;;9.82;8.73;;;14.30;99.90;;;;;;5046989;28;20069;-46
2023/04/20 11:24:49;;;;;;;11.90;8.23;;;14.50;99.90;;;;;;5047214;28;20048;-47
2023/04/20 11:27:23;;;;;;;10.35;8.73;;;15.00;99.90;;;;;;5043340;28;20190;-45
2023/04/20 11:29:58;;;;;;;9.30;8.30;;;15.20;99.90;;;;;;5043573;28;20052;-44
2023/04/20 11:32:26;;;;;;;9.63;8.63;;;15.60;99.90;;;;;;5050965;28;20049;-46
2023/04/20 11:34:58;;;;;;;10.63;8.63;;;15.60;99.90;;;;;;5043796;28;20053;-44
2023/04/20 11:37:45;;;;;;;9.48;8.20;;;15.60;99.90;;;;;;5043868;28;20045;-47
2023/04/20 11:40:13;;;;;;;11.52;8.48;;;15.50;99.90;;;;;;5043367;28;20055;-45
2023/04/20 11:42:41;;;;;;;9.15;8.25;;;15.50;99.90;;;;;;5043531;28;20425;-45
2023/04/20 11:45:10;;;;;;;9.38;8.10;;;15.30;99.90;;;;;;5045501;28;20432;-45
2023/04/20 11:47:40;;;;;;;9.90;8.90;;;15.60;99.90;;;;;;5044564;28;20038;-44
2023/04/20 11:50:09;;;;;;;10.75;9.35;;;15.40;99.90;;;;;;5050302;28;20527;-45
2023/04/20 11:52:36;;;;;;;9.73;8.73;;;15.20;99.90;;;;;;5049763;28;20053;-44
2023/04/20 11:55:04;;;;;;;9.20;8.30;;;14.90;99.90;;;;;;5051205;28;20041;-45
2023/04/20 11:57:33;;;;;;;9.82;8.82;;;14.20;99.90;;;;;;5037358;28;20049;-46
2023/04/20 12:00:00;;;;;;;9.23;8.02;;;13.80;99.90;;;;;;5031170;28;20456;-43
2023/04/20 12:02:28;;;;;;;9.07;8.18;;;13.00;99.90;;;;;;5050071;28;20114;-44
2023/04/20 12:04:55;;;;;;;10.00;7.55;;;12.90;99.90;;;;;;5046768;28;20414;-45
2023/04/20 12:07:23;;;;;;;8.55;7.57;;;12.80;99.90;;;;;;5051510;28;20063;-47
2023/04/20 12:09:50;;;;;;;8.38;7.50;;;12.60;99.90;;;;;;5042898;28;20037;-48
2023/04/20 12:12:17;;;;;;;10.32;8.18;;;12.50;99.90;;;;;;5047922;28;20565;-42
2023/04/20 12:14:45;;;;;;;9.18;7.88;;;12.30;99.90;;;;;;5043250;28;20165;-49
2023/04/20 12:17:12;;;;;;;10.85;8.80;;;11.90;99.90;;;;;;5049432;28;20470;-47
2023/04/20 12:19:39;;;;;;;9.57;8.57;;;11.90;99.90;;;;;;5044440;28;20486;-46
2023/04/20 12:22:06;;;;;;;10.10;8.50;;;11.80;99.90;;;;;;5042789;28;20740;-44
2023/04/20 12:24:34;;;;;;;9.35;8.30;;;11.80;99.90;;;;;;5047333;28;20156;-46
2023/04/20 12:27:02;;;;;;;10.00;8.40;;;11.60;99.90;;;;;;5035346;28;20551;-43
2023/04/20 12:29:31;;;;;;;10.80;8.98;;;11.60;99.90;;;;;;5042426;28;20046;-45
2023/04/20 12:31:59;;;;;;;9.73;8.50;;;11.50;99.90;;;;;;5050210;28;20041;-44
2023/04/20 12:34:26;;;;;;;11.95;10.57;;;11.50;99.90;;;;;;5044145;28;20470;-43
2023/04/20 12:36:53;;;;;;;10.57;8.65;;;11.30;99.90;;;;;;5046393;28;20037;-47
2023/04/20 12:39:21;;;;;;;10.50;8.82;;;11.20;99.90;;;;;;5039250;28;20140;-44
2023/04/20 12:41:48;;;;;;;12.52;9.20;;;11.30;99.90;;;;;;5046067;28;20542;-44
2023/04/20 12:44:16;;;;;;;10.30;8.63;;;11.40;99.90;;;;;;5035246;28;20038;-41
2023/04/20 12:46:44;;;;;;;10.48;9.43;;;11.20;99.90;;;;;;5041015;28;20587;-46
2023/04/20 12:49:11;;;;;;;9.95;8.95;;;11.00;99.90;;;;;;5039460;28;20079;-44
2023/04/20 12:51:39;;;;;;;10.48;9.23;;;11.20;99.90;;;;;;5042925;28;20131;-45